Franklin, New York
Current Conditions -  °F | °C
As of 5:53 AM on Thursday 27 Nov 2014 (Local Time) from KBGM Reporting Station
Light Snow Light Snow  
Wind Chill: 30°   Ceiling: 1000
Heat Index: 34°   Visibility: 4mi
Dew Point: 24°   Wind: 5mph
Humidity: 67%   Direction: 310°NW
Pressure: 29.92"   Gusts: NA
Location:  42.34°N, 75.17°W
Report Text: KBGM 271053Z AUTO 31004KT 4SM -SN OVC010 01/M04 A2992 RMK AO2 SLP143 P0000 T00111044 $
Loading
Personal Weather Stations






























Interactive Weather Map New forecast layout! Learn more

10-Day Weather Forecast

Advertisements
Track Severe Weather on mobile